Time;durP1;ratioP1;P1;durP2;ratioP2;P2;SDS_P1;SDS_P2;PMS_P1;PMS_P2;Temp;Humidity;BMP_temperature;BMP_pressure;BME280_temperature;BME280_humidity;BME280_pressure;Samples;Min_cycle;Max_cycle;Signal;HPM_P1;HPM_P2
2024/02/13 00:01:09;;;;;;;26.23;25.23;;;22.30;55.10;;;;;;5054957;28;20499;-61
2024/02/13 00:03:37;;;;;;;26.30;25.20;;;22.30;55.10;;;;;;5053943;28;20491;-62
2024/02/13 00:06:05;;;;;;;26.10;24.90;;;22.20;55.10;;;;;;5053779;28;20484;-60
2024/02/13 00:08:32;;;;;;;26.17;24.97;;;22.20;55.80;;;;;;5053887;28;20468;-63
2024/02/13 00:11:03;;;;;;;26.87;25.77;;;22.20;55.30;;;;;;5053706;28;20503;-63
2024/02/13 00:13:30;;;;;;;26.50;25.30;;;22.10;55.20;;;;;;5073674;28;20527;-63
2024/02/13 00:15:57;;;;;;;28.10;26.70;;;22.10;55.20;;;;;;5073658;28;20439;-63
2024/02/13 00:18:23;;;;;;;26.20;25.10;;;22.10;55.20;;;;;;5073655;28;20443;-64
2024/02/13 00:20:54;;;;;;;28.00;26.90;;;22.10;55.30;;;;;;5073502;28;20497;-63
2024/02/13 00:23:21;;;;;;;28.17;26.97;;;22.10;55.30;;;;;;5071126;28;20439;-63
2024/02/13 00:25:48;;;;;;;27.37;26.27;;;22.00;55.20;;;;;;5053400;28;20920;-64
2024/02/13 00:28:17;;;;;;;27.70;26.50;;;22.00;55.30;;;;;;5052658;28;20494;-63
2024/02/13 00:30:44;;;;;;;28.00;26.90;;;22.00;55.30;;;;;;5066862;28;20481;-63
2024/02/13 00:33:11;;;;;;;26.60;25.50;;;21.90;55.20;;;;;;5073263;28;20475;-63
2024/02/13 00:35:39;;;;;;;26.30;25.20;;;21.90;55.20;;;;;;5067697;28;20944;-63
2024/02/13 00:38:07;;;;;;;26.00;25.00;;;21.90;55.30;;;;;;5053339;28;20440;-62
2024/02/13 00:40:34;;;;;;;26.10;25.00;;;21.90;55.30;;;;;;5053420;28;20464;-63
2024/02/13 00:43:01;;;;;;;26.40;25.30;;;21.90;55.40;;;;;;5053215;28;20476;-63
2024/02/13 00:45:28;;;;;;;28.60;27.50;;;21.80;55.40;;;;;;5053000;28;20527;-63
2024/02/13 00:47:55;;;;;;;26.00;24.90;;;21.80;55.40;;;;;;5058740;28;20472;-63
2024/02/13 00:50:22;;;;;;;25.13;24.13;;;21.80;55.40;;;;;;5072966;28;20516;-63
2024/02/13 00:52:50;;;;;;;26.33;25.13;;;21.80;55.50;;;;;;5073007;28;20859;-64
2024/02/13 00:55:18;;;;;;;26.93;25.73;;;21.80;55.50;;;;;;5072909;28;20447;-64
2024/02/13 00:57:46;;;;;;;25.97;24.87;;;21.70;55.50;;;;;;5072947;28;20471;-64
2024/02/13 01:00:14;;;;;;;26.07;24.97;;;21.70;55.50;;;;;;5066408;28;20535;-63
2024/02/13 01:02:41;;;;;;;26.90;25.60;;;21.70;55.50;;;;;;5052724;28;20940;-63
2024/02/13 01:05:09;;;;;;;26.40;25.30;;;21.70;55.60;;;;;;5052664;28;20848;-62
2024/02/13 01:07:36;;;;;;;26.57;25.47;;;21.60;55.50;;;;;;5052913;28;20443;-63
2024/02/13 01:10:06;;;;;;;25.80;24.70;;;21.60;55.60;;;;;;5052760;28;20548;-64
2024/02/13 01:12:34;;;;;;;26.37;25.33;;;21.60;55.70;;;;;;5062893;28;20484;-63
2024/02/13 01:15:01;;;;;;;26.30;25.20;;;21.60;55.70;;;;;;5072425;28;20486;-63
2024/02/13 01:17:29;;;;;;;25.90;24.90;;;21.60;55.70;;;;;;5072711;28;20519;-63
2024/02/13 01:19:57;;;;;;;26.90;25.80;;;21.50;55.50;;;;;;5072466;28;20459;-62
2024/02/13 01:22:24;;;;;;;26.33;25.23;;;21.50;55.50;;;;;;5072394;28;20447;-64
2024/02/13 01:24:51;;;;;;;26.70;25.60;;;21.50;55.50;;;;;;5057079;28;20875;-63
2024/02/13 01:27:19;;;;;;;26.37;25.27;;;21.50;55.50;;;;;;5052406;28;20515;-63
2024/02/13 01:29:48;;;;;;;26.47;25.37;;;21.50;55.60;;;;;;5052098;28;20897;-63
2024/02/13 01:32:16;;;;;;;26.77;25.57;;;21.50;55.50;;;;;;5053237;28;20475;-64
2024/02/13 01:34:43;;;;;;;26.20;25.10;;;21.50;55.60;;;;;;5052080;28;20530;-63
2024/02/13 01:37:10;;;;;;;26.67;25.47;;;21.50;55.70;;;;;;5052022;28;20447;-63
2024/02/13 01:39:37;;;;;;;25.30;24.20;;;21.40;55.60;;;;;;5051761;28;20931;-63
2024/02/13 01:42:05;;;;;;;25.60;24.60;;;21.40;55.70;;;;;;5057038;28;20478;-64
2024/02/13 01:44:31;;;;;;;25.93;24.93;;;21.40;55.70;;;;;;5072059;28;20930;-63
2024/02/13 01:47:00;;;;;;;26.07;24.77;;;21.40;55.70;;;;;;5072006;28;20511;-63
2024/02/13 01:49:28;;;;;;;25.97;24.87;;;21.40;55.70;;;;;;5071929;28;20498;-63
2024/02/13 01:51:56;;;;;;;25.93;24.93;;;21.40;55.70;;;;;;5071852;28;20443;-64
2024/02/13 01:54:26;;;;;;;26.40;25.30;;;21.30;55.60;;;;;;5064795;28;20464;-63
2024/02/13 01:56:54;;;;;;;25.70;24.67;;;21.30;55.60;;;;;;5052041;28;20448;-63
2024/02/13 01:59:22;;;;;;;26.30;25.20;;;21.30;55.60;;;;;;5051758;28;20476;-63
2024/02/13 02:01:49;;;;;;;26.10;25.00;;;21.30;55.70;;;;;;5051675;28;20452;-63
2024/02/13 02:04:18;;;;;;;26.77;25.57;;;21.30;55.70;;;;;;5051788;28;20467;-63
2024/02/13 02:06:46;;;;;;;25.90;24.80;;;21.30;55.70;;;;;;5059824;28;20472;-62
2024/02/13 02:09:14;;;;;;;25.77;24.57;;;21.20;55.60;;;;;;5071753;28;20524;-63
2024/02/13 02:11:40;;;;;;;26.60;25.50;;;21.20;55.70;;;;;;5071576;28;20949;-64
2024/02/13 02:14:08;;;;;;;27.10;26.00;;;21.20;55.70;;;;;;5071775;28;20490;-62
2024/02/13 02:16:35;;;;;;;25.70;24.57;;;21.20;55.70;;;;;;5071651;28;20522;-63
2024/02/13 02:19:02;;;;;;;25.77;24.60;;;21.20;55.70;;;;;;5059274;28;20468;-63
2024/02/13 02:21:31;;;;;;;26.00;24.80;;;21.20;55.70;;;;;;5051500;28;20441;-63
2024/02/13 02:23:59;;;;;;;25.67;24.57;;;21.20;55.70;;;;;;5051569;28;20436;-64
2024/02/13 02:26:27;;;;;;;26.43;25.13;;;21.10;55.60;;;;;;5051517;28;20563;-64
2024/02/13 02:28:54;;;;;;;26.37;25.27;;;21.10;55.60;;;;;;5051418;28;20479;-63
2024/02/13 02:31:22;;;;;;;26.10;25.00;;;21.10;55.60;;;;;;5065260;28;20898;-63
2024/02/13 02:33:49;;;;;;;26.67;25.47;;;21.10;55.60;;;;;;5071604;28;20447;-63
2024/02/13 02:36:16;;;;;;;25.97;24.87;;;21.10;55.60;;;;;;5071553;28;20478;-63
2024/02/13 02:38:43;;;;;;;26.10;25.00;;;21.10;55.60;;;;;;5068976;28;20467;-64
2024/02/13 02:41:10;;;;;;;26.90;25.70;;;21.00;55.50;;;;;;5061178;28;20487;-63
2024/02/13 02:43:38;;;;;;;26.80;25.60;;;21.00;55.60;;;;;;5071476;28;20836;-63
2024/02/13 02:46:05;;;;;;;25.43;24.40;;;21.00;55.70;;;;;;5071528;28;20517;-63
2024/02/13 02:48:32;;;;;;;24.90;23.90;;;21.00;55.70;;;;;;5066838;28;20471;-63
2024/02/13 02:51:00;;;;;;;26.47;25.37;;;21.00;55.70;;;;;;5052335;28;20526;-64
2024/02/13 02:53:27;;;;;;;25.57;24.47;;;20.90;55.60;;;;;;5054626;28;20509;-64
2024/02/13 02:55:54;;;;;;;25.80;24.50;;;20.90;55.50;;;;;;5055305;28;20444;-64
2024/02/13 02:58:21;;;;;;;26.17;24.93;;;20.90;55.60;;;;;;5055152;28;20471;-63
2024/02/13 03:00:50;;;;;;;25.60;24.50;;;20.90;55.50;;;;;;5063492;28;20490;-63
2024/02/13 03:03:20;;;;;;;25.73;24.63;;;20.90;55.50;;;;;;5075231;28;20443;-63
2024/02/13 03:05:47;;;;;;;26.53;25.33;;;20.90;55.60;;;;;;5074979;28;20443;-64
2024/02/13 03:08:15;;;;;;;25.83;24.63;;;20.90;55.60;;;;;;5075016;28;21062;-63
2024/02/13 03:10:42;;;;;;;26.20;25.00;;;20.80;55.50;;;;;;5074825;28;21056;-63
2024/02/13 03:13:12;;;;;;;26.30;25.10;;;20.80;55.50;;;;;;5063002;28;20462;-63
2024/02/13 03:15:39;;;;;;;26.50;25.30;;;20.80;55.50;;;;;;5054707;28;20448;-63
2024/02/13 03:18:08;;;;;;;26.50;25.10;;;20.80;55.50;;;;;;5054937;28;20794;-63
2024/02/13 03:20:35;;;;;;;26.87;25.57;;;20.80;55.50;;;;;;5054803;28;20895;-63
2024/02/13 03:23:02;;;;;;;26.73;25.60;;;20.80;55.50;;;;;;5054972;28;20448;-63
2024/02/13 03:25:29;;;;;;;27.10;25.57;;;20.80;55.50;;;;;;5068514;28;20477;-60
2024/02/13 03:27:56;;;;;;;26.40;25.30;;;20.80;55.50;;;;;;5074493;28;20518;-62
2024/02/13 03:30:23;;;;;;;27.30;26.00;;;20.70;55.40;;;;;;5074363;28;20502;-63
2024/02/13 03:32:50;;;;;;;26.97;25.80;;;20.70;55.40;;;;;;5068755;28;21136;-63
2024/02/13 03:35:18;;;;;;;27.77;26.57;;;20.70;55.40;;;;;;5054457;28;20827;-62
2024/02/13 03:37:45;;;;;;;26.97;25.77;;;20.70;55.50;;;;;;5054428;28;20471;-63
2024/02/13 03:40:16;;;;;;;26.43;25.33;;;20.70;55.50;;;;;;5054399;28;20563;-63
2024/02/13 03:42:43;;;;;;;27.10;25.90;;;20.70;55.60;;;;;;5072382;28;20435;-63
2024/02/13 03:45:10;;;;;;;27.33;26.13;;;20.70;55.60;;;;;;5074330;28;20538;-63
2024/02/13 03:47:37;;;;;;;26.80;25.60;;;20.60;55.50;;;;;;5074084;28;21012;-62
2024/02/13 03:50:05;;;;;;;26.10;25.00;;;20.60;55.50;;;;;;5074120;28;20875;-63
2024/02/13 03:52:35;;;;;;;26.50;25.40;;;20.60;55.50;;;;;;5057378;28;20862;-63
2024/02/13 03:55:04;;;;;;;26.60;25.40;;;20.60;55.50;;;;;;5054064;28;20811;-63
2024/02/13 03:57:31;;;;;;;26.70;25.50;;;20.60;55.50;;;;;;5054027;28;20451;-63
2024/02/13 03:59:58;;;;;;;26.90;25.70;;;20.60;55.50;;;;;;5053986;28;20488;-62
2024/02/13 04:02:26;;;;;;;31.07;29.67;;;20.60;55.50;;;;;;5054072;28;20858;-62
2024/02/13 04:04:53;;;;;;;28.13;26.93;;;20.60;55.60;;;;;;5073743;28;20438;-62
2024/02/13 04:07:20;;;;;;;29.03;27.73;;;20.60;55.60;;;;;;5073861;28;20510;-63
2024/02/13 04:09:48;;;;;;;27.70;26.50;;;20.50;55.50;;;;;;5073755;28;20467;-62
2024/02/13 04:12:15;;;;;;;28.37;27.07;;;20.50;55.50;;;;;;5073761;28;20475;-61
2024/02/13 04:14:42;;;;;;;27.60;26.40;;;20.50;55.50;;;;;;5072943;28;20447;-63
2024/02/13 04:17:10;;;;;;;28.10;26.80;;;20.50;55.50;;;;;;5053675;28;20523;-63
2024/02/13 04:19:38;;;;;;;26.87;25.77;;;20.50;55.50;;;;;;5053725;28;20828;-63
2024/02/13 04:22:05;;;;;;;27.87;26.50;;;20.50;55.50;;;;;;5053579;28;20932;-62
2024/02/13 04:24:32;;;;;;;28.00;26.80;;;20.50;55.50;;;;;;5053484;28;20471;-63
2024/02/13 04:27:01;;;;;;;28.27;26.97;;;20.50;55.50;;;;;;5056089;28;21041;-63
2024/02/13 04:29:27;;;;;;;28.50;27.10;;;20.50;55.50;;;;;;5073401;28;20510;-63
2024/02/13 04:31:54;;;;;;;28.87;27.57;;;20.50;55.50;;;;;;5073671;28;20487;-62
2024/02/13 04:34:21;;;;;;;27.90;26.70;;;20.40;55.50;;;;;;5073221;28;20467;-63
2024/02/13 04:36:48;;;;;;;28.37;27.07;;;20.40;55.40;;;;;;5073288;28;20439;-63
2024/02/13 04:39:15;;;;;;;29.33;28.00;;;20.40;55.40;;;;;;5070373;28;20471;-63
2024/02/13 04:41:44;;;;;;;30.20;28.90;;;20.40;55.40;;;;;;5053198;28;20487;-63
2024/02/13 04:44:13;;;;;;;29.40;28.10;;;20.40;55.40;;;;;;5053089;28;20455;-63
2024/02/13 04:46:41;;;;;;;27.67;26.47;;;20.40;55.40;;;;;;5053022;28;20499;-63
2024/02/13 04:49:08;;;;;;;27.80;26.60;;;20.40;55.50;;;;;;5068375;28;20500;-63
2024/02/13 04:51:35;;;;;;;28.80;27.50;;;20.40;55.50;;;;;;5073048;28;20938;-62
2024/02/13 04:54:04;;;;;;;27.90;26.60;;;20.40;55.50;;;;;;5072882;28;20479;-64
2024/02/13 04:56:33;;;;;;;26.23;25.03;;;20.40;55.50;;;;;;5072962;28;20478;-62
2024/02/13 04:59:02;;;;;;;29.07;27.77;;;20.40;55.50;;;;;;5058588;28;20529;-63
2024/02/13 05:01:30;;;;;;;30.17;28.67;;;20.40;56.10;;;;;;5052908;28;20502;-63
2024/02/13 05:09:23;;;;;;;30.03;28.73;;;20.30;55.50;;;;;;5053071;28;20478;-62
2024/02/13 05:11:50;;;;;;;30.67;29.13;;;20.30;55.50;;;;;;5053672;28;21132;-63
2024/02/13 05:14:17;;;;;;;33.23;31.53;;;20.30;55.50;;;;;;5052189;28;20468;-63
2024/02/13 05:16:45;;;;;;;30.70;29.40;;;20.30;55.50;;;;;;5052374;28;20482;-63
2024/02/13 05:19:12;;;;;;;31.13;29.67;;;20.30;55.50;;;;;;5052637;28;20999;-63
2024/02/13 05:21:39;;;;;;;31.43;29.93;;;20.30;55.50;;;;;;5068852;28;20482;-62
2024/02/13 05:24:07;;;;;;;29.87;28.57;;;20.30;55.50;;;;;;5072336;28;21084;-63
2024/02/13 05:26:35;;;;;;;31.03;29.63;;;20.30;55.50;;;;;;5072317;28;20471;-62
2024/02/13 05:29:03;;;;;;;31.23;29.83;;;20.30;55.50;;;;;;5072207;28;20475;-63
2024/02/13 05:31:30;;;;;;;29.80;28.50;;;20.20;55.40;;;;;;5072180;28;20802;-63
2024/02/13 05:33:58;;;;;;;31.30;29.90;;;20.20;55.40;;;;;;5055320;28;20444;-63
2024/02/13 05:36:26;;;;;;;32.43;30.93;;;20.30;55.50;;;;;;5052258;28;20468;-63
2024/02/13 05:38:53;;;;;;;31.50;30.10;;;20.20;55.50;;;;;;5052241;28;20440;-63
2024/02/13 05:41:20;;;;;;;31.30;29.80;;;20.20;55.50;;;;;;5060526;28;20494;-64
2024/02/13 05:43:47;;;;;;;33.90;32.43;;;20.30;55.50;;;;;;5072033;28;20467;-64
2024/02/13 05:46:14;;;;;;;37.57;35.97;;;20.20;55.40;;;;;;5072017;28;20529;-63
2024/02/13 05:48:42;;;;;;;35.97;34.47;;;20.20;55.50;;;;;;5071378;28;20525;-62
2024/02/13 05:51:11;;;;;;;36.37;34.83;;;20.20;55.50;;;;;;5051817;28;20494;-63
2024/02/13 05:53:38;;;;;;;35.80;34.30;;;20.20;55.50;;;;;;5051875;28;20440;-62
2024/02/13 05:56:05;;;;;;;33.70;32.30;;;20.20;55.50;;;;;;5051804;28;20862;-63
2024/02/13 05:58:33;;;;;;;31.20;29.80;;;20.20;55.50;;;;;;5051729;28;20440;-64
2024/02/13 06:01:00;;;;;;;30.80;29.50;;;20.20;55.50;;;;;;5070865;28;20571;-63
2024/02/13 06:03:27;;;;;;;31.47;30.07;;;20.20;55.50;;;;;;5071818;28;20467;-64
2024/02/13 06:05:54;;;;;;;30.30;28.90;;;20.20;55.50;;;;;;5071975;28;20479;-63
2024/02/13 06:08:23;;;;;;;29.90;28.60;;;20.20;55.50;;;;;;5071756;28;21154;-63
2024/02/13 06:10:49;;;;;;;30.67;29.17;;;20.20;55.50;;;;;;5070572;28;20566;-62
2024/02/13 06:13:16;;;;;;;32.40;30.37;;;20.20;55.60;;;;;;5051566;28;20476;-63
2024/02/13 06:15:44;;;;;;;31.93;29.93;;;20.20;57.00;;;;;;5051714;28;20476;-61
2024/02/13 06:18:10;;;;;;;33.40;30.93;;;20.20;58.60;;;;;;5051552;28;20448;-63
2024/02/13 06:20:38;;;;;;;32.10;29.77;;;20.20;62.00;;;;;;5051419;28;21010;-61
2024/02/13 06:23:05;;;;;;;36.03;31.60;;;20.20;66.20;;;;;;5053790;28;20440;-62
2024/02/13 06:25:33;;;;;;;36.10;33.23;;;20.20;67.90;;;;;;5071549;28;20482;-62
2024/02/13 06:28:00;;;;;;;32.07;29.57;;;20.20;70.10;;;;;;5074142;28;20883;-62
2024/02/13 06:30:27;;;;;;;32.90;30.17;;;20.20;72.30;;;;;;5075438;28;20521;-63
2024/02/13 06:32:54;;;;;;;31.47;29.30;;;20.20;73.30;;;;;;5075600;28;20474;-63
2024/02/13 06:35:20;;;;;;;35.50;33.17;;;20.20;73.40;;;;;;5070770;28;20463;-64
2024/02/13 06:37:47;;;;;;;43.50;40.00;;;20.20;73.90;;;;;;5055458;28;20518;-65
2024/02/13 06:40:14;;;;;;;38.50;35.23;;;20.30;73.90;;;;;;5055242;28;20492;-64
2024/02/13 06:42:43;;;;;;;38.67;35.67;;;20.20;72.40;;;;;;5055265;28;20472;-64
2024/02/13 06:45:10;;;;;;;38.03;34.13;;;20.20;71.60;;;;;;5055091;28;20482;-65
2024/02/13 06:47:37;;;;;;;41.53;38.57;;;20.20;70.90;;;;;;5054538;28;20524;-64
2024/02/13 06:50:10;;;;;;;38.40;35.20;;;20.20;70.30;;;;;;5054023;28;20503;-64
2024/02/13 06:52:36;;;;;;;35.90;33.60;;;20.20;69.90;;;;;;5055084;28;20448;-64
2024/02/13 06:55:03;;;;;;;36.73;34.30;;;20.20;69.30;;;;;;5054902;28;20482;-65
2024/02/13 06:57:32;;;;;;;38.07;35.60;;;20.20;68.80;;;;;;5054992;28;20970;-63
2024/02/13 07:00:00;;;;;;;37.27;34.93;;;20.20;68.30;;;;;;5054828;28;20470;-64
2024/02/13 07:02:27;;;;;;;38.63;36.00;;;20.20;67.70;;;;;;5054912;28;20518;-64
2024/02/13 07:04:54;;;;;;;36.93;34.43;;;20.20;67.10;;;;;;5054895;28;20471;-63
2024/02/13 07:07:21;;;;;;;39.70;37.30;;;20.30;66.80;;;;;;5054807;28;20520;-64
2024/02/13 07:09:52;;;;;;;41.23;38.83;;;20.20;66.40;;;;;;5054584;28;20496;-65
2024/02/13 07:12:20;;;;;;;39.97;37.40;;;20.20;66.10;;;;;;5054758;28;20441;-64
2024/02/13 07:14:46;;;;;;;38.00;35.70;;;20.20;65.70;;;;;;5054536;28;20838;-64
2024/02/13 07:17:15;;;;;;;38.50;36.30;;;20.20;65.60;;;;;;5054744;28;20470;-64
2024/02/13 07:19:42;;;;;;;42.00;39.40;;;20.20;65.20;;;;;;5054521;28;20456;-64
2024/02/13 07:22:09;;;;;;;41.10;38.53;;;20.20;64.90;;;;;;5054408;28;20482;-65
2024/02/13 07:24:37;;;;;;;38.20;35.73;;;20.20;64.50;;;;;;5054367;28;20479;-65
2024/02/13 07:27:05;;;;;;;38.40;36.17;;;20.20;64.30;;;;;;5054371;28;20820;-64
2024/02/13 07:29:32;;;;;;;39.17;37.07;;;20.20;64.10;;;;;;5054166;28;20808;-65
2024/02/13 07:32:00;;;;;;;40.97;38.47;;;20.10;63.70;;;;;;5054353;28;20468;-64
2024/02/13 07:34:28;;;;;;;40.07;37.73;;;20.20;63.60;;;;;;5054289;28;20436;-64
2024/02/13 07:36:55;;;;;;;39.93;37.67;;;20.20;63.30;;;;;;5054403;28;20971;-64
2024/02/13 07:39:22;;;;;;;40.67;38.63;;;20.20;63.10;;;;;;5053696;28;20470;-65
2024/02/13 07:41:49;;;;;;;39.33;37.43;;;20.10;62.80;;;;;;5054273;28;20807;-64
2024/02/13 07:44:16;;;;;;;39.40;37.20;;;20.20;62.70;;;;;;5054197;28;20468;-64
2024/02/13 07:46:43;;;;;;;40.77;38.60;;;20.10;62.40;;;;;;5054266;28;20493;-63
2024/02/13 07:49:10;;;;;;;41.10;38.70;;;20.10;62.20;;;;;;5053876;28;20480;-64
2024/02/13 07:51:38;;;;;;;39.23;37.27;;;20.10;62.00;;;;;;5053978;28;20447;-64
2024/02/13 07:54:05;;;;;;;38.60;36.77;;;20.10;61.80;;;;;;5053953;28;20574;-64
2024/02/13 07:56:32;;;;;;;39.77;37.90;;;20.10;61.60;;;;;;5054045;28;20566;-65
2024/02/13 07:58:59;;;;;;;35.87;34.07;;;20.10;61.50;;;;;;5053799;28;20955;-64
2024/02/13 08:01:27;;;;;;;36.90;34.80;;;20.10;61.40;;;;;;5053687;28;20491;-64
2024/02/13 08:03:54;;;;;;;40.87;38.23;;;20.10;61.30;;;;;;5053711;28;20517;-64
2024/02/13 08:06:21;;;;;;;35.93;34.13;;;20.10;61.10;;;;;;5053746;28;20440;-64
2024/02/13 08:08:50;;;;;;;37.77;35.83;;;20.10;60.90;;;;;;5053469;28;20512;-64
2024/02/13 08:11:17;;;;;;;38.70;36.70;;;20.10;60.80;;;;;;5053434;28;20467;-64
2024/02/13 08:13:44;;;;;;;38.00;36.10;;;20.10;60.60;;;;;;5053598;28;20452;-64
2024/02/13 08:16:13;;;;;;;39.90;37.90;;;20.10;60.40;;;;;;5053496;28;20472;-65
2024/02/13 08:18:40;;;;;;;36.73;35.03;;;20.10;60.30;;;;;;5053428;28;20440;-63
2024/02/13 08:21:07;;;;;;;36.10;34.30;;;20.00;60.10;;;;;;5053281;28;20459;-65
2024/02/13 08:23:34;;;;;;;37.33;35.53;;;20.10;60.10;;;;;;5053293;28;20447;-64
2024/02/13 08:26:02;;;;;;;37.10;35.40;;;20.10;60.00;;;;;;5053355;28;20468;-64
2024/02/13 08:28:30;;;;;;;38.40;36.60;;;20.10;59.90;;;;;;5053179;28;20478;-64
2024/02/13 08:30:57;;;;;;;39.53;37.50;;;20.00;59.70;;;;;;5053012;28;20476;-65
2024/02/13 08:33:24;;;;;;;40.07;38.30;;;20.00;59.60;;;;;;5053224;28;20450;-64
2024/02/13 08:35:53;;;;;;;40.87;39.03;;;20.00;59.50;;;;;;5053293;28;20476;-64
2024/02/13 08:38:20;;;;;;;38.57;36.60;;;20.00;59.50;;;;;;5053168;28;20523;-64
2024/02/13 08:40:47;;;;;;;37.83;35.93;;;20.10;59.50;;;;;;5053069;28;20518;-64
2024/02/13 08:43:15;;;;;;;39.67;37.73;;;20.00;59.30;;;;;;5053004;28;20884;-64
2024/02/13 08:45:42;;;;;;;41.97;39.67;;;20.00;59.30;;;;;;5053024;28;20515;-64
2024/02/13 08:48:09;;;;;;;41.00;38.83;;;20.00;59.20;;;;;;5052847;28;20518;-65
2024/02/13 08:50:36;;;;;;;37.33;35.63;;;20.00;59.20;;;;;;5051982;28;20456;-64
2024/02/13 08:53:03;;;;;;;39.20;37.50;;;20.00;59.20;;;;;;5053013;28;20959;-65
2024/02/13 08:55:30;;;;;;;37.67;35.83;;;20.00;59.10;;;;;;5052770;28;20440;-63
2024/02/13 08:57:57;;;;;;;39.80;37.90;;;20.00;59.00;;;;;;5052807;28;20860;-64
2024/02/13 09:00:28;;;;;;;41.07;39.17;;;20.00;58.90;;;;;;5052777;28;20582;-65
2024/02/13 09:02:57;;;;;;;39.13;37.50;;;20.00;58.90;;;;;;5052709;28;20440;-64
2024/02/13 09:05:24;;;;;;;40.10;38.30;;;20.00;58.90;;;;;;5052836;28;20445;-64
2024/02/13 09:07:51;;;;;;;39.80;37.80;;;20.00;58.80;;;;;;5052478;28;20478;-63
2024/02/13 09:10:18;;;;;;;38.90;37.20;;;20.00;58.70;;;;;;5052390;28;20463;-64
2024/02/13 09:12:45;;;;;;;40.87;38.70;;;19.90;58.60;;;;;;5052446;28;20476;-64
2024/02/13 09:15:12;;;;;;;41.03;39.03;;;20.00;58.60;;;;;;5052381;28;20432;-65
2024/02/13 09:17:42;;;;;;;39.67;37.70;;;19.90;58.50;;;;;;5052383;28;20444;-64
2024/02/13 09:20:13;;;;;;;40.23;38.23;;;19.90;58.40;;;;;;5052215;28;20908;-63
2024/02/13 09:22:42;;;;;;;39.50;37.60;;;20.00;58.50;;;;;;5052327;28;20476;-64
2024/02/13 09:25:11;;;;;;;43.23;41.33;;;20.00;58.40;;;;;;5052240;28;20452;-64
2024/02/13 09:27:38;;;;;;;41.17;39.27;;;20.00;58.30;;;;;;5052335;28;20436;-64
2024/02/13 09:30:07;;;;;;;39.50;37.70;;;19.90;58.20;;;;;;5051882;28;20515;-64
2024/02/13 09:32:35;;;;;;;37.90;36.10;;;19.90;58.20;;;;;;5052099;28;20536;-64
2024/02/13 09:35:04;;;;;;;38.67;36.97;;;19.90;58.20;;;;;;5052074;28;20478;-65
2024/02/13 09:37:34;;;;;;;39.70;37.70;;;19.90;58.10;;;;;;5052041;28;20448;-65
2024/02/13 09:40:03;;;;;;;40.97;39.23;;;19.90;58.00;;;;;;5051902;28;20464;-64
2024/02/13 09:42:30;;;;;;;41.07;39.17;;;19.90;58.50;;;;;;5051944;28;20479;-64
2024/02/13 09:44:58;;;;;;;38.27;36.30;;;19.90;57.90;;;;;;5051857;28;20468;-65
2024/02/13 09:47:27;;;;;;;39.37;37.47;;;19.90;57.90;;;;;;5051905;28;20450;-65
2024/02/13 09:49:54;;;;;;;36.37;34.67;;;19.90;57.80;;;;;;5051641;28;20484;-64
2024/02/13 09:52:24;;;;;;;36.50;34.90;;;19.90;57.70;;;;;;5051727;28;20467;-64
2024/02/13 09:54:52;;;;;;;37.33;35.70;;;19.80;57.60;;;;;;5051697;28;20468;-64
2024/02/13 09:57:19;;;;;;;38.20;36.50;;;19.80;57.60;;;;;;5051729;28;20450;-65
2024/02/13 09:59:46;;;;;;;38.90;37.10;;;19.90;57.60;;;;;;5051682;28;20484;-64
2024/02/13 10:02:14;;;;;;;38.97;37.33;;;19.80;57.50;;;;;;5051563;28;20468;-64
2024/02/13 10:04:41;;;;;;;38.97;37.07;;;19.80;57.50;;;;;;5051600;28;20463;-64
2024/02/13 10:07:08;;;;;;;38.57;36.87;;;19.80;57.50;;;;;;5051663;28;20440;-64
2024/02/13 10:09:37;;;;;;;36.73;35.03;;;19.80;57.40;;;;;;5057370;28;20482;-64
2024/02/13 10:12:12;;;;;;;38.30;36.40;;;19.80;57.40;;;;;;5053226;28;20899;-65
2024/02/13 10:14:39;;;;;;;38.27;36.57;;;19.80;57.30;;;;;;5051633;28;20448;-64
2024/02/13 10:17:10;;;;;;;37.33;35.60;;;19.80;57.20;;;;;;5060683;28;20970;-64
2024/02/13 10:19:38;;;;;;;39.50;37.80;;;19.80;57.10;;;;;;5071625;28;20455;-64
2024/02/13 10:22:06;;;;;;;38.30;36.70;;;19.80;57.10;;;;;;5066148;28;20462;-64
2024/02/13 10:24:33;;;;;;;37.80;36.10;;;19.80;57.10;;;;;;5051568;28;20441;-64
2024/02/13 10:27:03;;;;;;;38.83;36.93;;;19.80;57.10;;;;;;5051549;28;20467;-64
2024/02/13 10:29:40;;;;;;;39.90;38.20;;;19.80;57.00;;;;;;5051329;28;20922;-64
2024/02/13 10:32:08;;;;;;;37.03;35.33;;;19.80;56.90;;;;;;5086150;22;20509;-72
2024/02/13 10:34:38;;;;;;;39.90;38.10;;;19.80;56.90;;;;;;5057046;28;20443;-71
2024/02/13 10:37:08;;;;;;;37.40;35.70;;;19.80;56.80;;;;;;5051215;28;20472;-72
2024/02/13 10:39:36;;;;;;;38.00;36.10;;;19.70;56.70;;;;;;5051320;28;20937;-72
2024/02/13 10:42:09;;;;;;;37.80;36.10;;;19.80;56.80;;;;;;5049868;28;20966;-72
2024/02/13 10:44:43;;;;;;;39.30;37.40;;;19.70;56.70;;;;;;5031297;28;20452;-71
2024/02/13 10:47:12;;;;;;;37.23;35.63;;;19.80;56.70;;;;;;5031395;28;20535;-72
2024/02/13 10:49:51;;;;;;;36.27;34.67;;;19.70;56.50;;;;;;5031112;28;21007;-72
2024/02/13 10:52:18;;;;;;;38.53;36.83;;;19.70;56.60;;;;;;5050345;28;20466;-72
2024/02/13 10:54:47;;;;;;;39.63;37.93;;;19.70;56.50;;;;;;5051155;28;20467;-72
2024/02/13 10:57:16;;;;;;;39.50;37.80;;;19.70;56.50;;;;;;5051412;28;20809;-71
2024/02/13 10:59:44;;;;;;;38.90;37.30;;;19.70;56.50;;;;;;5051373;28;20440;-72
2024/02/13 11:02:15;;;;;;;40.80;39.10;;;19.70;56.50;;;;;;5051011;28;20456;-72
2024/02/13 11:04:46;;;;;;;39.60;37.90;;;19.70;56.40;;;;;;5051018;28;20994;-72
2024/02/13 11:07:14;;;;;;;38.60;37.00;;;19.70;56.40;;;;;;5051314;28;20448;-71
2024/02/13 11:09:41;;;;;;;39.93;38.23;;;19.70;56.40;;;;;;5051195;28;20476;-71
2024/02/13 11:12:10;;;;;;;38.10;36.50;;;19.70;56.40;;;;;;5050762;28;20886;-72
2024/02/13 11:14:38;;;;;;;39.00;37.40;;;19.70;56.30;;;;;;5054513;28;20436;-72
2024/02/13 11:17:10;;;;;;;37.07;35.37;;;19.70;56.30;;;;;;5054993;28;20471;-72
2024/02/13 11:19:38;;;;;;;38.83;37.13;;;19.70;56.30;;;;;;5055058;28;20466;-72
2024/02/13 11:22:08;;;;;;;38.60;36.90;;;19.70;56.20;;;;;;5054436;28;20459;-72
2024/02/13 11:24:48;;;;;;;37.23;35.70;;;19.70;56.20;;;;;;5054911;28;20440;-71
2024/02/13 11:27:17;;;;;;;40.13;38.43;;;19.70;56.20;;;;;;5054961;28;20447;-72
2024/02/13 11:29:57;;;;;;;38.90;36.90;;;19.70;56.10;;;;;;5054971;28;20480;-72
2024/02/13 11:32:28;;;;;;;38.17;36.57;;;19.70;56.10;;;;;;5054366;28;20478;-72
2024/02/13 11:34:57;;;;;;;40.20;38.50;;;19.70;56.10;;;;;;5054616;28;20940;-72
2024/02/13 11:37:27;;;;;;;37.60;35.90;;;19.70;56.10;;;;;;5054639;28;20638;-72
2024/02/13 11:39:54;;;;;;;38.30;36.70;;;19.60;56.00;;;;;;5054320;28;20443;-72
2024/02/13 11:42:23;;;;;;;37.70;36.00;;;19.70;56.00;;;;;;5054129;28;20484;-72
2024/02/13 11:44:51;;;;;;;38.17;36.50;;;19.60;55.90;;;;;;5054430;28;20553;-72
2024/02/13 11:47:20;;;;;;;38.83;37.03;;;19.70;56.00;;;;;;5054377;28;20924;-72
2024/02/13 11:49:50;;;;;;;36.97;35.37;;;19.70;56.00;;;;;;5053936;28;20482;-72
2024/02/13 11:52:17;;;;;;;39.00;37.30;;;19.70;55.90;;;;;;5054164;28;20492;-71
2024/02/13 11:54:46;;;;;;;39.13;37.43;;;19.70;55.90;;;;;;5054389;28;20474;-72
2024/02/13 11:57:13;;;;;;;39.47;37.73;;;19.70;55.90;;;;;;5054251;28;20526;-71
2024/02/13 11:59:40;;;;;;;38.80;37.20;;;19.70;55.90;;;;;;5053895;28;20944;-72
2024/02/13 12:02:13;;;;;;;36.70;35.17;;;19.70;55.80;;;;;;5053999;28;20467;-71
2024/02/13 12:04:42;;;;;;;37.37;35.77;;;19.70;55.80;;;;;;5054060;28;20446;-71
2024/02/13 12:07:11;;;;;;;36.77;35.20;;;19.60;55.70;;;;;;5054052;28;20444;-72
2024/02/13 12:09:40;;;;;;;36.90;35.30;;;19.70;55.70;;;;;;5053649;28;20471;-71
2024/02/13 12:12:09;;;;;;;37.90;36.30;;;19.70;55.70;;;;;;5053732;28;20468;-72
2024/02/13 12:14:36;;;;;;;36.03;34.53;;;19.70;55.70;;;;;;5053619;28;20448;-71
2024/02/13 12:17:06;;;;;;;35.30;33.80;;;19.70;55.70;;;;;;5053771;28;20479;-72
2024/02/13 12:19:36;;;;;;;37.90;36.20;;;19.60;55.60;;;;;;5053404;28;20448;-72
2024/02/13 12:22:09;;;;;;;36.43;34.77;;;19.70;55.70;;;;;;5053512;28;20463;-72
2024/02/13 12:24:39;;;;;;;36.47;34.80;;;19.60;55.60;;;;;;5052157;28;20479;-71
2024/02/13 12:27:09;;;;;;;37.40;35.80;;;19.60;55.60;;;;;;5053452;28;20819;-71
2024/02/13 12:29:39;;;;;;;35.83;34.23;;;19.70;55.60;;;;;;5053299;28;20479;-72
2024/02/13 12:32:08;;;;;;;36.47;34.87;;;19.70;55.70;;;;;;5053223;28;20476;-72
2024/02/13 12:34:37;;;;;;;35.60;34.00;;;19.60;55.50;;;;;;5053359;28;20525;-72
2024/02/13 12:37:08;;;;;;;35.30;33.70;;;19.70;55.60;;;;;;5053489;28;20436;-72